Time;durP1;ratioP1;P1;durP2;ratioP2;P2;SDS_P1;SDS_P2;PMS_P1;PMS_P2;Temp;Humidity;BMP_temperature;BMP_pressure;BME280_temperature;BME280_humidity;BME280_pressure;Samples;Min_cycle;Max_cycle;Signal;HPM_P1;HPM_P2
2021/07/15 00:02:12;;;;;;;;;15.25;12.00;;;;;;;;8775617;40;10468;-59
2021/07/15 00:08:18;;;;;;;;;14.50;14.00;;;;;;;;8773901;40;10523;-59
2021/07/15 00:14:22;;;;;;;;;16.50;14.25;;;;;;;;8776450;40;10510;-59
2021/07/15 00:20:25;;;;;;;;;15.00;14.50;;;;;;;;8776039;40;11097;-59
2021/07/15 00:26:28;;;;;;;;;18.25;16.00;;;;;;;;8773888;40;10673;-59
2021/07/15 00:32:30;;;;;;;;;14.25;14.25;;;;;;;;8773953;40;10752;-60
2021/07/15 00:38:33;;;;;;;;;19.50;18.75;;;;;;;;8773672;40;10889;-60
2021/07/15 00:44:35;;;;;;;;;24.25;22.00;;;;;;;;8773591;40;10691;-59
2021/07/15 00:50:38;;;;;;;;;22.25;21.00;;;;;;;;8775144;40;10666;-59
2021/07/15 00:56:40;;;;;;;;;21.00;18.25;;;;;;;;8775128;40;10670;-60
2021/07/15 01:02:42;;;;;;;;;18.00;17.75;;;;;;;;8772896;40;10779;-60
2021/07/15 01:08:44;;;;;;;;;20.25;19.50;;;;;;;;8773413;40;10767;-59
2021/07/15 01:15:03;;;;;;;;;21.75;21.50;;;;;;;;8773553;40;10770;-61
2021/07/15 01:21:43;;;;;;;;;23.75;20.75;;;;;;;;8773817;40;10830;-59
2021/07/15 01:28:00;;;;;;;;;24.50;22.50;;;;;;;;8773379;40;12075;-59
2021/07/15 01:34:03;;;;;;;;;24.00;21.50;;;;;;;;8772921;40;10787;-60
2021/07/15 01:40:08;;;;;;;;;20.00;19.33;;;;;;;;8773272;40;10396;-60
2021/07/15 01:46:12;;;;;;;;;19.25;18.50;;;;;;;;8773562;40;11094;-61
2021/07/15 01:52:15;;;;;;;;;19.00;17.00;;;;;;;;8773653;40;10786;-60
2021/07/15 01:58:18;;;;;;;;;21.75;21.75;;;;;;;;8772669;40;11321;-60
2021/07/15 02:04:21;;;;;;;;;20.75;19.50;;;;;;;;8762576;40;10870;-59
2021/07/15 02:10:25;;;;;;;;;20.33;18.33;;;;;;;;8772443;40;10681;-59
2021/07/15 02:16:27;;;;;;;;;18.75;18.75;;;;;;;;8771708;40;10784;-58
2021/07/15 02:22:30;;;;;;;;;19.67;19.67;;;;;;;;8771986;40;10249;-60
2021/07/15 02:28:33;;;;;;;;;20.75;20.75;;;;;;;;8774586;40;10955;-59
2021/07/15 02:35:04;;;;;;;;;25.00;23.00;;;;;;;;8775653;40;10768;-59
2021/07/15 02:41:06;;;;;;;;;19.75;19.75;;;;;;;;8774201;40;10883;-58
2021/07/15 02:47:10;;;;;;;;;21.50;20.00;;;;;;;;8775731;40;11509;-59
2021/07/15 02:53:12;;;;;;;;;29.00;24.67;;;;;;;;8776472;40;10465;-59
2021/07/15 02:59:29;;;;;;;;;24.75;22.00;;;;;;;;8774878;40;10880;-60
2021/07/15 03:05:41;;;;;;;;;27.67;26.33;;;;;;;;8775878;40;10267;-60
2021/07/15 03:11:59;;;;;;;;;25.33;25.33;;;;;;;;8776955;40;10280;-59
2021/07/15 03:18:04;;;;;;;;;26.33;23.00;;;;;;;;8774934;40;10646;-59
2021/07/15 03:24:10;;;;;;;;;32.00;26.50;;;;;;;;8776213;40;11070;-60
2021/07/15 03:30:14;;;;;;;;;22.67;20.33;;;;;;;;8775595;40;11244;-59
2021/07/15 03:36:17;;;;;;;;;28.00;23.00;;;;;;;;8774575;40;10553;-59
2021/07/15 03:42:20;;;;;;;;;26.00;22.00;;;;;;;;8774978;40;10529;-60
2021/07/15 03:48:26;;;;;;;;;25.33;24.33;;;;;;;;8773499;40;10468;-60
2021/07/15 03:54:29;;;;;;;;;23.00;23.00;;;;;;;;8775562;40;11053;-60
2021/07/15 04:07:19;;;;;;;;;28.25;27.00;;;;;;;;9255882;23;11044;-59
2021/07/15 04:13:25;;;;;;;;;21.50;20.75;;;;;;;;8754387;40;11616;-59
2021/07/15 04:19:27;;;;;;;;;24.25;20.75;;;;;;;;8751468;40;11135;-60
2021/07/15 04:25:30;;;;;;;;;26.00;25.75;;;;;;;;8753073;40;10817;-59
2021/07/15 04:31:34;;;;;;;;;26.50;22.75;;;;;;;;8752386;40;10937;-58
2021/07/15 04:37:38;;;;;;;;;25.75;21.75;;;;;;;;8752447;40;10836;-60
2021/07/15 04:43:42;;;;;;;;;24.25;23.25;;;;;;;;8750747;40;10922;-59
2021/07/15 04:49:44;;;;;;;;;24.50;24.50;;;;;;;;8751444;40;10894;-59
2021/07/15 04:55:47;;;;;;;;;22.25;22.25;;;;;;;;8752139;40;10771;-59
2021/07/15 05:01:51;;;;;;;;;25.50;24.50;;;;;;;;8750520;40;10830;-58
2021/07/15 05:07:54;;;;;;;;;28.50;25.00;;;;;;;;8753123;40;10747;-59
2021/07/15 05:13:56;;;;;;;;;23.00;21.80;;;;;;;;8278223;40;20002340;-58
2021/07/15 05:19:58;;;;;;;;;25.75;25.75;;;;;;;;8751209;40;10736;-58
2021/07/15 05:26:01;;;;;;;;;23.50;22.50;;;;;;;;8751334;40;10686;-58
2021/07/15 05:32:03;;;;;;;;;23.50;22.25;;;;;;;;8749598;40;10595;-58
2021/07/15 05:38:05;;;;;;;;;21.50;21.50;;;;;;;;8750533;40;10605;-58
2021/07/15 05:44:07;;;;;;;;;28.00;23.00;;;;;;;;8750387;40;10825;-57
2021/07/15 05:50:10;;;;;;;;;26.00;24.75;;;;;;;;8750823;40;10531;-57
2021/07/15 05:56:11;;;;;;;;;26.75;23.00;;;;;;;;8758397;40;10586;-59
2021/07/15 06:02:15;;;;;;;;;24.25;24.00;;;;;;;;8773604;40;10704;-58
2021/07/15 06:08:17;;;;;;;;;25.25;23.25;;;;;;;;8747778;40;10536;-59
2021/07/15 06:14:19;;;;;;;;;25.25;19.00;;;;;;;;8745966;40;10552;-58
2021/07/15 06:20:21;;;;;;;;;24.25;21.50;;;;;;;;8745421;40;10610;-59
2021/07/15 06:26:23;;;;;;;;;20.75;17.25;;;;;;;;8747477;40;10605;-59
2021/07/15 06:32:25;;;;;;;;;17.50;16.75;;;;;;;;8740032;40;10542;-61
2021/07/15 06:38:29;;;;;;;;;25.50;24.00;;;;;;;;8741444;40;10527;-58
2021/07/15 06:44:31;;;;;;;;;19.75;17.50;;;;;;;;8739465;40;10586;-58
2021/07/15 06:50:33;;;;;;;;;20.25;19.50;;;;;;;;8745413;40;10610;-61
2021/07/15 06:56:35;;;;;;;;;16.00;16.00;;;;;;;;8742994;40;10630;-58
2021/07/15 07:02:42;;;;;;;;;17.00;16.25;;;;;;;;8742488;40;10553;-58
2021/07/15 07:08:44;;;;;;;;;16.75;15.25;;;;;;;;8742042;40;10541;-58
2021/07/15 07:14:46;;;;;;;;;14.25;14.25;;;;;;;;8744024;40;10756;-58
2021/07/15 07:20:48;;;;;;;;;21.75;19.25;;;;;;;;8748989;40;11143;-59
2021/07/15 07:26:50;;;;;;;;;16.50;15.00;;;;;;;;8744445;40;10558;-59
2021/07/15 07:32:52;;;;;;;;;16.25;15.25;;;;;;;;8748509;40;10486;-58
2021/07/15 07:38:55;;;;;;;;;15.25;15.25;;;;;;;;8740772;40;11348;-59
2021/07/15 07:44:57;;;;;;;;;20.25;19.75;;;;;;;;8743903;40;10701;-58
2021/07/15 07:50:59;;;;;;;;;20.50;20.00;;;;;;;;8744601;40;10553;-59
2021/07/15 07:57:01;;;;;;;;;20.00;16.00;;;;;;;;8751496;40;10770;-58
2021/07/15 08:03:03;;;;;;;;;15.75;15.75;;;;;;;;8746019;40;10603;-58
2021/07/15 08:09:07;;;;;;;;;14.50;13.25;;;;;;;;8748193;40;10577;-60
2021/07/15 08:15:11;;;;;;;;;14.75;14.75;;;;;;;;8746922;40;10662;-59
2021/07/15 08:21:17;;;;;;;;;16.75;13.75;;;;;;;;8746775;40;10584;-59
2021/07/15 08:27:19;;;;;;;;;17.00;15.50;;;;;;;;8745070;40;10589;-59
2021/07/15 08:33:21;;;;;;;;;17.75;16.50;;;;;;;;8747598;40;10765;-59
2021/07/15 08:39:23;;;;;;;;;18.75;18.75;;;;;;;;8745386;40;10906;-59
2021/07/15 08:45:26;;;;;;;;;20.00;19.25;;;;;;;;8751496;40;10655;-59
2021/07/15 08:51:29;;;;;;;;;14.00;14.00;;;;;;;;8742520;40;10569;-59
2021/07/15 08:57:32;;;;;;;;;15.50;15.50;;;;;;;;8743180;40;10610;-59
2021/07/15 09:03:34;;;;;;;;;12.25;12.25;;;;;;;;8744186;40;10556;-60
2021/07/15 09:09:36;;;;;;;;;15.25;14.00;;;;;;;;8745061;40;11453;-60
2021/07/15 09:15:46;;;;;;;;;25.25;20.25;;;;;;;;8750675;40;10575;-59
2021/07/15 09:21:48;;;;;;;;;10.75;10.75;;;;;;;;8746518;40;10531;-59
2021/07/15 09:27:50;;;;;;;;;14.25;14.25;;;;;;;;8744328;40;10562;-59
2021/07/15 09:33:52;;;;;;;;;10.25;9.25;;;;;;;;8741778;40;10498;-58
2021/07/15 09:39:54;;;;;;;;;13.00;11.00;;;;;;;;8747147;40;10497;-59
2021/07/15 09:46:00;;;;;;;;;15.50;14.25;;;;;;;;8749917;40;10545;-58
2021/07/15 09:52:03;;;;;;;;;14.75;14.00;;;;;;;;8738707;40;10575;-57
2021/07/15 09:58:08;;;;;;;;;21.25;19.00;;;;;;;;8743285;40;10677;-57
2021/07/15 10:04:10;;;;;;;;;25.50;25.00;;;;;;;;8743172;40;10655;-59
2021/07/15 10:10:18;;;;;;;;;14.75;12.75;;;;;;;;8741920;40;11242;-58
2021/07/15 10:16:20;;;;;;;;;15.50;14.50;;;;;;;;8744228;40;10990;-58
2021/07/15 10:22:30;;;;;;;;;14.50;13.00;;;;;;;;8741918;40;10527;-58
2021/07/15 10:28:32;;;;;;;;;17.25;17.00;;;;;;;;8741761;40;10517;-59
2021/07/15 10:34:34;;;;;;;;;17.75;16.00;;;;;;;;8739832;40;10589;-59
2021/07/15 10:40:36;;;;;;;;;16.50;13.75;;;;;;;;8739591;40;10775;-58
2021/07/15 10:46:38;;;;;;;;;15.00;14.75;;;;;;;;8750185;40;10604;-57
2021/07/15 10:53:02;;;;;;;;;15.75;14.75;;;;;;;;8747214;40;10723;-58
2021/07/15 10:59:21;;;;;;;;;11.00;10.75;;;;;;;;8747735;40;10499;-58
2021/07/15 11:05:26;;;;;;;;;14.25;11.00;;;;;;;;8747762;40;10535;-57
2021/07/15 11:11:40;;;;;;;;;13.00;13.00;;;;;;;;8750136;40;10764;-58
2021/07/15 11:17:51;;;;;;;;;14.50;13.50;;;;;;;;8751460;40;10505;-57
2021/07/15 11:23:54;;;;;;;;;10.00;10.00;;;;;;;;8751007;40;10692;-58
2021/07/15 11:29:57;;;;;;;;;11.50;11.00;;;;;;;;8754759;40;10527;-58
2021/07/15 11:36:12;;;;;;;;;18.50;14.75;;;;;;;;8750107;40;10593;-58
2021/07/15 11:42:21;;;;;;;;;12.25;11.50;;;;;;;;8751777;40;10556;-58
2021/07/15 11:48:42;;;;;;;;;13.00;11.75;;;;;;;;8749351;40;10551;-57
2021/07/15 11:54:48;;;;;;;;;13.75;13.25;;;;;;;;8749565;40;10656;-60
2021/07/15 12:01:12;;;;;;;;;14.75;13.00;;;;;;;;8750286;40;10991;-57
2021/07/15 12:07:20;;;;;;;;;14.75;13.50;;;;;;;;8748173;40;10582;-58
2021/07/15 12:13:22;;;;;;;;;13.00;12.00;;;;;;;;8763444;40;10483;-58
2021/07/15 12:19:24;;;;;;;;;14.75;14.75;;;;;;;;8753081;40;10483;-58
2021/07/15 12:25:33;;;;;;;;;13.50;12.75;;;;;;;;8754793;40;10502;-57
2021/07/15 12:31:35;;;;;;;;;10.50;10.50;;;;;;;;8748826;40;10591;-56
2021/07/15 12:37:38;;;;;;;;;16.75;14.25;;;;;;;;8749091;40;10558;-57
2021/07/15 12:43:46;;;;;;;;;15.25;14.75;;;;;;;;8736616;40;10515;-57
2021/07/15 12:49:48;;;;;;;;;13.25;13.25;;;;;;;;8748071;40;11103;-58
2021/07/15 12:55:56;;;;;;;;;11.75;11.75;;;;;;;;8749312;40;10533;-58
2021/07/15 13:02:00;;;;;;;;;12.25;12.25;;;;;;;;8748485;40;10653;-59
2021/07/15 13:08:06;;;;;;;;;16.00;15.25;;;;;;;;8748381;40;11150;-57
2021/07/15 13:14:15;;;;;;;;;13.50;13.50;;;;;;;;8749407;40;10715;-59
2021/07/15 13:20:24;;;;;;;;;14.50;14.50;;;;;;;;8748229;40;10621;-57
2021/07/15 13:26:26;;;;;;;;;15.00;13.50;;;;;;;;8762715;40;10551;-57
2021/07/15 13:32:29;;;;;;;;;14.75;14.75;;;;;;;;8753173;40;10763;-57
2021/07/15 13:38:39;;;;;;;;;11.00;10.00;;;;;;;;8747381;40;10740;-57
2021/07/15 13:44:55;;;;;;;;;15.50;15.50;;;;;;;;8756416;40;10613;-57
2021/07/15 13:51:03;;;;;;;;;19.00;17.25;;;;;;;;8770458;40;10542;-59
2021/07/15 13:57:10;;;;;;;;;11.75;11.25;;;;;;;;8772270;40;10537;-60
2021/07/15 14:03:16;;;;;;;;;16.50;13.75;;;;;;;;8772775;40;10564;-58
2021/07/15 14:09:20;;;;;;;;;16.75;14.75;;;;;;;;8773278;40;11153;-59
2021/07/15 14:15:27;;;;;;;;;14.25;14.25;;;;;;;;8772321;40;10507;-58
2021/07/15 14:21:30;;;;;;;;;17.75;12.75;;;;;;;;8774051;40;10518;-58
2021/07/15 14:27:32;;;;;;;;;15.75;14.25;;;;;;;;8775296;40;10545;-59
2021/07/15 14:33:37;;;;;;;;;13.00;13.00;;;;;;;;8775443;40;10588;-59
2021/07/15 14:39:40;;;;;;;;;14.50;14.50;;;;;;;;8776313;40;10510;-58
2021/07/15 14:45:45;;;;;;;;;12.75;12.75;;;;;;;;8775586;40;10582;-57
2021/07/15 14:51:47;;;;;;;;;12.00;11.25;;;;;;;;8774948;40;10538;-59
2021/07/15 14:57:50;;;;;;;;;13.50;13.50;;;;;;;;8777027;40;11082;-59
2021/07/15 15:03:52;;;;;;;;;11.50;11.50;;;;;;;;8775354;40;10542;-58
2021/07/15 15:09:54;;;;;;;;;10.50;10.00;;;;;;;;8775707;40;10436;-59
2021/07/15 15:16:00;;;;;;;;;12.75;11.50;;;;;;;;8776100;40;10531;-59
2021/07/15 15:22:03;;;;;;;;;12.25;12.25;;;;;;;;8775384;40;10496;-59
2021/07/15 15:28:05;;;;;;;;;12.00;11.75;;;;;;;;8775093;40;10540;-59
2021/07/15 15:34:07;;;;;;;;;13.50;13.50;;;;;;;;8774933;40;10496;-58
2021/07/15 15:40:12;;;;;;;;;12.75;11.00;;;;;;;;8776105;40;10490;-58
2021/07/15 15:46:14;;;;;;;;;12.00;12.00;;;;;;;;8774586;40;10718;-57
2021/07/15 15:52:17;;;;;;;;;12.00;12.00;;;;;;;;8775088;40;10539;-59
2021/07/15 15:58:19;;;;;;;;;10.00;10.00;;;;;;;;8781297;40;10378;-58
2021/07/15 16:04:22;;;;;;;;;14.50;14.50;;;;;;;;8763085;40;10563;-58
2021/07/15 16:10:25;;;;;;;;;15.00;14.75;;;;;;;;8751553;40;10581;-58
2021/07/15 16:16:27;;;;;;;;;11.25;11.25;;;;;;;;8750579;40;11005;-58
2021/07/15 16:22:29;;;;;;;;;14.00;14.00;;;;;;;;8750570;40;11120;-57
2021/07/15 16:28:31;;;;;;;;;22.50;21.25;;;;;;;;8750278;40;10580;-58
2021/07/15 16:34:33;;;;;;;;;18.50;16.50;;;;;;;;8749204;40;10583;-58
2021/07/15 16:40:36;;;;;;;;;16.00;13.00;;;;;;;;8749884;40;10527;-56
2021/07/15 16:46:39;;;;;;;;;13.50;13.50;;;;;;;;8749032;40;10504;-57
2021/07/15 16:52:42;;;;;;;;;13.75;13.25;;;;;;;;8750118;40;10621;-58
2021/07/15 16:58:44;;;;;;;;;13.75;13.75;;;;;;;;8292639;40;10001289;-59
2021/07/15 17:04:46;;;;;;;;;17.25;17.25;;;;;;;;8773415;40;10622;-59
2021/07/15 17:10:48;;;;;;;;;16.25;13.25;;;;;;;;8774756;40;10509;-58
2021/07/15 17:16:50;;;;;;;;;17.25;14.25;;;;;;;;8773122;40;10560;-58
2021/07/15 17:22:52;;;;;;;;;21.25;19.00;;;;;;;;8772943;40;10695;-57
2021/07/15 17:28:55;;;;;;;;;20.75;17.50;;;;;;;;8774402;40;10575;-59
2021/07/15 17:34:57;;;;;;;;;18.75;17.75;;;;;;;;8772669;40;10744;-57
2021/07/15 17:40:59;;;;;;;;;18.50;17.00;;;;;;;;8773253;40;10501;-58
2021/07/15 17:47:01;;;;;;;;;14.00;14.00;;;;;;;;8772951;40;10719;-59
2021/07/15 17:53:03;;;;;;;;;18.00;16.00;;;;;;;;8289397;40;10001055;-57
2021/07/15 17:59:06;;;;;;;;;17.00;14.25;;;;;;;;8774354;40;10678;-58
2021/07/15 18:05:10;;;;;;;;;21.25;20.00;;;;;;;;8772910;40;10685;-58
2021/07/15 18:11:11;;;;;;;;;25.75;17.25;;;;;;;;8772913;40;10674;-58
2021/07/15 18:17:14;;;;;;;;;19.50;19.50;;;;;;;;8772531;40;11304;-57
2021/07/15 18:23:16;;;;;;;;;16.25;16.00;;;;;;;;8771670;40;10787;-58
2021/07/15 18:29:18;;;;;;;;;20.75;20.00;;;;;;;;8773666;40;10811;-58
2021/07/15 18:35:20;;;;;;;;;16.25;14.00;;;;;;;;8771451;40;10747;-59
2021/07/15 18:41:22;;;;;;;;;16.25;16.25;;;;;;;;8772372;40;10506;-58
2021/07/15 18:47:24;;;;;;;;;21.50;19.50;;;;;;;;8770608;40;11162;-57
2021/07/15 18:53:26;;;;;;;;;19.00;19.00;;;;;;;;8771482;40;10689;-56
2021/07/15 18:59:27;;;;;;;;;24.00;20.75;;;;;;;;8772912;40;10751;-58
2021/07/15 19:05:30;;;;;;;;;21.75;19.25;;;;;;;;8770158;40;11535;-59
2021/07/15 19:11:34;;;;;;;;;28.25;26.25;;;;;;;;8775906;40;10758;-59
2021/07/15 19:17:35;;;;;;;;;23.00;23.00;;;;;;;;8774521;40;10616;-58
2021/07/15 19:23:37;;;;;;;;;18.75;18.00;;;;;;;;8774906;40;10576;-59
2021/07/15 19:29:39;;;;;;;;;30.75;26.75;;;;;;;;8776676;40;10819;-58
2021/07/15 19:35:41;;;;;;;;;19.25;17.50;;;;;;;;8774732;40;10737;-59
2021/07/15 19:41:43;;;;;;;;;22.25;16.25;;;;;;;;8775121;40;10484;-58
2021/07/15 19:47:45;;;;;;;;;18.00;18.00;;;;;;;;8775924;40;10598;-59
2021/07/15 19:53:49;;;;;;;;;17.50;17.50;;;;;;;;8773950;40;11373;-59
2021/07/15 19:59:51;;;;;;;;;22.00;19.00;;;;;;;;8776383;40;10600;-59
2021/07/15 20:05:52;;;;;;;;;14.50;13.75;;;;;;;;8774968;40;10727;-59
2021/07/15 20:11:55;;;;;;;;;14.00;14.00;;;;;;;;8774663;40;10740;-58
2021/07/15 20:18:01;;;;;;;;;18.75;18.75;;;;;;;;8774295;40;10770;-61
2021/07/15 20:24:04;;;;;;;;;12.00;11.00;;;;;;;;8774131;40;10514;-58
2021/07/15 20:30:08;;;;;;;;;16.75;16.50;;;;;;;;8774709;40;10761;-57
2021/07/15 20:36:11;;;;;;;;;15.25;14.00;;;;;;;;8773722;40;10626;-58
2021/07/15 20:42:13;;;;;;;;;16.50;15.50;;;;;;;;8775307;40;10516;-57
2021/07/15 20:48:15;;;;;;;;;18.00;16.50;;;;;;;;8774089;40;10554;-58
2021/07/15 20:54:18;;;;;;;;;20.25;15.25;;;;;;;;8773028;40;11442;-57
2021/07/15 21:00:21;;;;;;;;;19.00;14.50;;;;;;;;8774430;40;10549;-58
2021/07/15 21:06:23;;;;;;;;;15.00;15.00;;;;;;;;8774135;40;10657;-57
2021/07/15 21:12:25;;;;;;;;;18.25;15.25;;;;;;;;8774177;40;10459;-58
2021/07/15 21:18:27;;;;;;;;;15.75;15.00;;;;;;;;8773225;40;10560;-57
2021/07/15 21:24:29;;;;;;;;;18.50;16.25;;;;;;;;8773021;40;10759;-58
2021/07/15 21:30:31;;;;;;;;;16.75;15.00;;;;;;;;8773476;40;10926;-57
2021/07/15 21:36:33;;;;;;;;;13.75;12.50;;;;;;;;8773583;40;10552;-58
2021/07/15 21:42:35;;;;;;;;;14.25;13.25;;;;;;;;8773374;40;10408;-57
2021/07/15 21:48:37;;;;;;;;;14.50;13.75;;;;;;;;8773360;40;10512;-58
2021/07/15 21:54:39;;;;;;;;;14.75;13.00;;;;;;;;8772275;40;10549;-58
2021/07/15 22:00:41;;;;;;;;;18.25;17.25;;;;;;;;8774165;40;10571;-57
2021/07/15 22:06:43;;;;;;;;;15.50;14.00;;;;;;;;8773263;40;10830;-57
2021/07/15 22:12:44;;;;;;;;;17.75;15.25;;;;;;;;8773583;40;10721;-58
2021/07/15 22:18:46;;;;;;;;;13.75;13.75;;;;;;;;8772971;40;10419;-59
2021/07/15 22:24:51;;;;;;;;;16.25;15.25;;;;;;;;8773107;40;10430;-57
2021/07/15 22:30:53;;;;;;;;;15.50;13.75;;;;;;;;8772678;40;10797;-57
2021/07/15 22:36:55;;;;;;;;;15.75;14.50;;;;;;;;8772550;40;10551;-58
2021/07/15 22:42:57;;;;;;;;;11.00;11.00;;;;;;;;8774413;40;10541;-57
2021/07/15 22:48:59;;;;;;;;;16.75;13.75;;;;;;;;8775550;40;10498;-58
2021/07/15 22:55:06;;;;;;;;;14.75;14.25;;;;;;;;8776287;40;10450;-57
2021/07/15 23:01:09;;;;;;;;;15.75;13.25;;;;;;;;8775978;40;10522;-57
2021/07/15 23:07:12;;;;;;;;;18.25;15.25;;;;;;;;8775759;40;10529;-58
2021/07/15 23:13:14;;;;;;;;;14.75;14.75;;;;;;;;8776569;40;10376;-59
2021/07/15 23:19:16;;;;;;;;;14.25;14.25;;;;;;;;8775794;40;10720;-57
2021/07/15 23:25:19;;;;;;;;;20.50;14.25;;;;;;;;8775287;40;11093;-58
2021/07/15 23:31:21;;;;;;;;;13.50;13.50;;;;;;;;8776230;40;10622;-58
2021/07/15 23:37:23;;;;;;;;;16.50;13.25;;;;;;;;8774593;40;11344;-57
2021/07/15 23:43:25;;;;;;;;;18.00;15.00;;;;;;;;8776927;40;10471;-58
2021/07/15 23:49:27;;;;;;;;;18.25;14.75;;;;;;;;8775169;40;10630;-58
2021/07/15 23:55:29;;;;;;;;;15.25;13.50;;;;;;;;8773442;40;10667;-58
